sensor_id;sensor_type;location;lat;lon;timestamp;P1;durP1;ratioP1;P2;durP2;ratioP2
46447;SDS011;32145;50.390;30.778;2022-07-06T00:02:33;8.82;;;5.60;;
46447;SDS011;32145;50.390;30.778;2022-07-06T00:05:17;6.95;;;5.68;;
46447;SDS011;32145;50.390;30.778;2022-07-06T00:08:01;8.73;;;5.43;;
46447;SDS011;32145;50.390;30.778;2022-07-06T00:10:46;8.05;;;5.60;;
46447;SDS011;32145;50.390;30.778;2022-07-06T00:13:31;7.15;;;5.47;;
46447;SDS011;32145;50.390;30.778;2022-07-06T00:16:16;7.05;;;5.70;;
46447;SDS011;32145;50.390;30.778;2022-07-06T00:19:00;8.98;;;5.70;;
46447;SDS011;32145;50.390;30.778;2022-07-06T00:21:44;8.73;;;5.30;;
46447;SDS011;32145;50.390;30.778;2022-07-06T00:24:28;7.97;;;6.03;;
46447;SDS011;32145;50.390;30.778;2022-07-06T00:27:13;8.70;;;6.05;;
46447;SDS011;32145;50.390;30.778;2022-07-06T00:29:58;8.38;;;6.07;;
46447;SDS011;32145;50.390;30.778;2022-07-06T00:32:43;10.13;;;6.10;;
46447;SDS011;32145;50.390;30.778;2022-07-06T00:35:26;9.13;;;5.95;;
46447;SDS011;32145;50.390;30.778;2022-07-06T00:38:11;11.45;;;5.75;;
46447;SDS011;32145;50.390;30.778;2022-07-06T00:40:55;7.85;;;5.60;;
46447;SDS011;32145;50.390;30.778;2022-07-06T00:43:46;7.35;;;5.68;;
46447;SDS011;32145;50.390;30.778;2022-07-06T00:46:32;9.52;;;6.00;;
46447;SDS011;32145;50.390;30.778;2022-07-06T00:49:17;7.40;;;5.78;;
46447;SDS011;32145;50.390;30.778;2022-07-06T00:52:01;10.95;;;5.82;;
46447;SDS011;32145;50.390;30.778;2022-07-06T00:54:46;9.70;;;5.78;;
46447;SDS011;32145;50.390;30.778;2022-07-06T00:57:30;8.38;;;5.55;;
46447;SDS011;32145;50.390;30.778;2022-07-06T01:00:15;10.35;;;6.43;;
46447;SDS011;32145;50.390;30.778;2022-07-06T01:03:02;10.75;;;5.93;;
46447;SDS011;32145;50.390;30.778;2022-07-06T01:05:47;10.23;;;5.78;;
46447;SDS011;32145;50.390;30.778;2022-07-06T01:08:31;9.13;;;5.75;;
46447;SDS011;32145;50.390;30.778;2022-07-06T01:11:16;8.60;;;5.47;;
46447;SDS011;32145;50.390;30.778;2022-07-06T01:14:01;10.65;;;5.53;;
46447;SDS011;32145;50.390;30.778;2022-07-06T01:16:46;8.10;;;5.75;;
46447;SDS011;32145;50.390;30.778;2022-07-06T01:19:32;7.85;;;5.60;;
46447;SDS011;32145;50.390;30.778;2022-07-06T01:22:18;6.95;;;5.75;;
46447;SDS011;32145;50.390;30.778;2022-07-06T01:25:02;8.68;;;5.30;;
46447;SDS011;32145;50.390;30.778;2022-07-06T01:27:46;8.52;;;5.45;;
46447;SDS011;32145;50.390;30.778;2022-07-06T01:30:31;9.15;;;5.43;;
46447;SDS011;32145;50.390;30.778;2022-07-06T01:33:16;7.03;;;5.63;;
46447;SDS011;32145;50.390;30.778;2022-07-06T01:36:01;8.13;;;5.63;;
46447;SDS011;32145;50.390;30.778;2022-07-06T01:38:47;7.30;;;5.85;;
46447;SDS011;32145;50.390;30.778;2022-07-06T01:41:32;8.38;;;5.93;;
46447;SDS011;32145;50.390;30.778;2022-07-06T01:44:16;8.57;;;5.47;;
46447;SDS011;32145;50.390;30.778;2022-07-06T01:47:00;9.77;;;5.93;;
46447;SDS011;32145;50.390;30.778;2022-07-06T01:49:44;11.38;;;5.97;;
46447;SDS011;32145;50.390;30.778;2022-07-06T01:52:28;9.98;;;5.90;;
46447;SDS011;32145;50.390;30.778;2022-07-06T01:55:14;8.63;;;5.63;;
46447;SDS011;32145;50.390;30.778;2022-07-06T01:57:58;8.65;;;5.60;;
46447;SDS011;32145;50.390;30.778;2022-07-06T02:00:42;9.00;;;6.20;;
46447;SDS011;32145;50.390;30.778;2022-07-06T02:03:26;9.15;;;5.68;;
46447;SDS011;32145;50.390;30.778;2022-07-06T02:06:10;8.52;;;5.75;;
46447;SDS011;32145;50.390;30.778;2022-07-06T02:08:55;7.90;;;5.90;;
46447;SDS011;32145;50.390;30.778;2022-07-06T02:11:41;9.30;;;5.97;;
46447;SDS011;32145;50.390;30.778;2022-07-06T02:14:25;8.95;;;5.90;;
46447;SDS011;32145;50.390;30.778;2022-07-06T02:17:09;8.80;;;6.15;;
46447;SDS011;32145;50.390;30.778;2022-07-06T02:19:53;8.73;;;6.10;;
46447;SDS011;32145;50.390;30.778;2022-07-06T02:22:37;8.20;;;6.50;;
46447;SDS011;32145;50.390;30.778;2022-07-06T02:25:21;7.72;;;6.00;;
46447;SDS011;32145;50.390;30.778;2022-07-06T02:28:07;11.20;;;5.82;;
46447;SDS011;32145;50.390;30.778;2022-07-06T02:30:51;10.93;;;6.47;;
46447;SDS011;32145;50.390;30.778;2022-07-06T02:33:35;8.80;;;6.65;;
46447;SDS011;32145;50.390;30.778;2022-07-06T02:36:19;9.10;;;5.72;;
46447;SDS011;32145;50.390;30.778;2022-07-06T02:39:03;7.97;;;6.28;;
46447;SDS011;32145;50.390;30.778;2022-07-06T02:41:47;8.60;;;6.85;;
46447;SDS011;32145;50.390;30.778;2022-07-06T02:44:32;9.63;;;6.70;;
46447;SDS011;32145;50.390;30.778;2022-07-06T02:47:16;11.35;;;6.43;;
46447;SDS011;32145;50.390;30.778;2022-07-06T02:50:00;15.35;;;6.93;;
46447;SDS011;32145;50.390;30.778;2022-07-06T02:52:45;8.40;;;6.80;;
46447;SDS011;32145;50.390;30.778;2022-07-06T02:55:29;10.40;;;6.50;;
46447;SDS011;32145;50.390;30.778;2022-07-06T02:58:13;10.15;;;6.88;;
46447;SDS011;32145;50.390;30.778;2022-07-06T03:00:58;9.95;;;6.70;;
46447;SDS011;32145;50.390;30.778;2022-07-06T03:03:42;10.23;;;6.93;;
46447;SDS011;32145;50.390;30.778;2022-07-06T03:06:26;10.20;;;7.20;;
46447;SDS011;32145;50.390;30.778;2022-07-06T03:09:10;9.90;;;6.70;;
46447;SDS011;32145;50.390;30.778;2022-07-06T03:11:54;12.18;;;7.10;;
46447;SDS011;32145;50.390;30.778;2022-07-06T03:14:38;10.90;;;7.32;;
46447;SDS011;32145;50.390;30.778;2022-07-06T03:17:23;7.32;;;6.07;;
46447;SDS011;32145;50.390;30.778;2022-07-06T03:20:07;8.50;;;6.72;;
46447;SDS011;32145;50.390;30.778;2022-07-06T03:22:51;8.88;;;6.53;;
46447;SDS011;32145;50.390;30.778;2022-07-06T03:25:35;10.73;;;7.15;;
46447;SDS011;32145;50.390;30.778;2022-07-06T03:28:19;10.48;;;7.18;;
46447;SDS011;32145;50.390;30.778;2022-07-06T03:31:03;11.98;;;7.25;;
46447;SDS011;32145;50.390;30.778;2022-07-06T03:33:49;9.23;;;7.22;;
46447;SDS011;32145;50.390;30.778;2022-07-06T03:36:32;9.98;;;7.03;;
46447;SDS011;32145;50.390;30.778;2022-07-06T03:39:16;12.07;;;6.90;;
46447;SDS011;32145;50.390;30.778;2022-07-06T03:42:00;12.60;;;7.18;;
46447;SDS011;32145;50.390;30.778;2022-07-06T03:44:45;11.93;;;7.68;;
46447;SDS011;32145;50.390;30.778;2022-07-06T03:47:28;12.40;;;7.60;;
46447;SDS011;32145;50.390;30.778;2022-07-06T03:50:14;13.07;;;7.85;;
46447;SDS011;32145;50.390;30.778;2022-07-06T03:52:58;11.85;;;7.35;;
46447;SDS011;32145;50.390;30.778;2022-07-06T03:55:43;10.68;;;7.43;;
46447;SDS011;32145;50.390;30.778;2022-07-06T03:58:27;12.90;;;6.75;;
46447;SDS011;32145;50.390;30.778;2022-07-06T04:01:11;10.18;;;7.28;;
46447;SDS011;32145;50.390;30.778;2022-07-06T04:03:55;9.65;;;6.90;;
46447;SDS011;32145;50.390;30.778;2022-07-06T04:06:41;10.73;;;6.65;;
46447;SDS011;32145;50.390;30.778;2022-07-06T04:09:25;7.25;;;5.97;;
46447;SDS011;32145;50.390;30.778;2022-07-06T04:12:09;9.10;;;6.28;;
46447;SDS011;32145;50.390;30.778;2022-07-06T04:14:55;8.57;;;5.70;;
46447;SDS011;32145;50.390;30.778;2022-07-06T04:17:40;9.40;;;6.30;;
46447;SDS011;32145;50.390;30.778;2022-07-06T04:20:24;9.75;;;5.97;;
46447;SDS011;32145;50.390;30.778;2022-07-06T04:23:10;7.40;;;5.70;;
46447;SDS011;32145;50.390;30.778;2022-07-06T04:25:54;11.15;;;6.13;;
46447;SDS011;32145;50.390;30.778;2022-07-06T04:28:38;9.23;;;6.20;;
46447;SDS011;32145;50.390;30.778;2022-07-06T04:31:22;7.63;;;5.75;;
46447;SDS011;32145;50.390;30.778;2022-07-06T04:34:07;6.63;;;5.70;;
46447;SDS011;32145;50.390;30.778;2022-07-06T04:36:51;11.85;;;5.88;;
46447;SDS011;32145;50.390;30.778;2022-07-06T04:39:36;11.05;;;5.60;;
46447;SDS011;32145;50.390;30.778;2022-07-06T04:42:20;7.60;;;5.28;;
46447;SDS011;32145;50.390;30.778;2022-07-06T04:45:04;15.90;;;5.30;;
46447;SDS011;32145;50.390;30.778;2022-07-06T04:47:49;9.18;;;5.30;;
46447;SDS011;32145;50.390;30.778;2022-07-06T04:50:33;13.43;;;5.28;;
46447;SDS011;32145;50.390;30.778;2022-07-06T04:53:18;8.00;;;5.03;;
46447;SDS011;32145;50.390;30.778;2022-07-06T04:56:03;9.45;;;5.00;;
46447;SDS011;32145;50.390;30.778;2022-07-06T04:58:48;11.38;;;5.05;;
46447;SDS011;32145;50.390;30.778;2022-07-06T05:01:32;5.97;;;4.40;;
46447;SDS011;32145;50.390;30.778;2022-07-06T05:04:16;10.05;;;4.82;;
46447;SDS011;32145;50.390;30.778;2022-07-06T05:07:00;8.63;;;4.43;;
46447;SDS011;32145;50.390;30.778;2022-07-06T05:09:44;8.25;;;4.95;;
46447;SDS011;32145;50.390;30.778;2022-07-06T05:12:29;7.35;;;4.45;;
46447;SDS011;32145;50.390;30.778;2022-07-06T05:15:13;6.30;;;4.40;;
46447;SDS011;32145;50.390;30.778;2022-07-06T05:17:57;7.03;;;4.13;;
46447;SDS011;32145;50.390;30.778;2022-07-06T05:20:41;6.13;;;4.45;;
46447;SDS011;32145;50.390;30.778;2022-07-06T05:23:25;7.22;;;4.03;;
46447;SDS011;32145;50.390;30.778;2022-07-06T05:26:10;6.75;;;4.53;;
46447;SDS011;32145;50.390;30.778;2022-07-06T05:28:55;4.88;;;4.07;;
46447;SDS011;32145;50.390;30.778;2022-07-06T05:31:39;6.53;;;4.30;;
46447;SDS011;32145;50.390;30.778;2022-07-06T05:34:24;11.18;;;4.15;;
46447;SDS011;32145;50.390;30.778;2022-07-06T05:37:08;8.57;;;4.20;;
46447;SDS011;32145;50.390;30.778;2022-07-06T05:39:52;9.63;;;4.70;;
46447;SDS011;32145;50.390;30.778;2022-07-06T05:42:36;6.38;;;4.28;;
46447;SDS011;32145;50.390;30.778;2022-07-06T05:45:21;6.45;;;4.50;;
46447;SDS011;32145;50.390;30.778;2022-07-06T05:48:05;6.70;;;4.50;;
46447;SDS011;32145;50.390;30.778;2022-07-06T05:50:49;7.53;;;4.68;;
46447;SDS011;32145;50.390;30.778;2022-07-06T05:53:33;6.28;;;4.50;;
46447;SDS011;32145;50.390;30.778;2022-07-06T05:56:17;6.15;;;4.40;;
46447;SDS011;32145;50.390;30.778;2022-07-06T05:59:01;6.75;;;4.22;;
46447;SDS011;32145;50.390;30.778;2022-07-06T06:01:46;5.20;;;4.50;;
46447;SDS011;32145;50.390;30.778;2022-07-06T06:04:30;7.97;;;4.68;;
46447;SDS011;32145;50.390;30.778;2022-07-06T06:07:14;8.30;;;4.47;;
46447;SDS011;32145;50.390;30.778;2022-07-06T06:09:58;6.15;;;4.40;;
46447;SDS011;32145;50.390;30.778;2022-07-06T06:12:42;6.85;;;4.15;;
46447;SDS011;32145;50.390;30.778;2022-07-06T06:15:27;6.90;;;4.07;;
46447;SDS011;32145;50.390;30.778;2022-07-06T06:18:13;8.23;;;4.00;;
46447;SDS011;32145;50.390;30.778;2022-07-06T06:20:57;6.10;;;3.50;;
46447;SDS011;32145;50.390;30.778;2022-07-06T06:23:41;6.97;;;3.88;;
46447;SDS011;32145;50.390;30.778;2022-07-06T06:26:25;7.47;;;4.05;;
46447;SDS011;32145;50.390;30.778;2022-07-06T06:29:09;5.45;;;3.50;;
46447;SDS011;32145;50.390;30.778;2022-07-06T06:31:52;7.15;;;3.70;;
46447;SDS011;32145;50.390;30.778;2022-07-06T06:34:38;7.05;;;3.60;;
46447;SDS011;32145;50.390;30.778;2022-07-06T06:37:22;10.02;;;4.13;;
46447;SDS011;32145;50.390;30.778;2022-07-06T06:40:06;5.88;;;3.70;;
46447;SDS011;32145;50.390;30.778;2022-07-06T06:42:51;4.75;;;3.78;;
46447;SDS011;32145;50.390;30.778;2022-07-06T06:45:35;8.65;;;3.70;;
46447;SDS011;32145;50.390;30.778;2022-07-06T06:48:20;8.00;;;3.70;;
46447;SDS011;32145;50.390;30.778;2022-07-06T06:51:05;9.27;;;3.78;;
46447;SDS011;32145;50.390;30.778;2022-07-06T06:53:49;6.10;;;3.67;;
46447;SDS011;32145;50.390;30.778;2022-07-06T06:56:33;5.32;;;3.50;;
46447;SDS011;32145;50.390;30.778;2022-07-06T06:59:17;4.97;;;3.50;;
46447;SDS011;32145;50.390;30.778;2022-07-06T07:02:01;4.57;;;3.38;;
46447;SDS011;32145;50.390;30.778;2022-07-06T07:04:46;5.53;;;3.60;;
46447;SDS011;32145;50.390;30.778;2022-07-06T07:07:31;9.57;;;3.55;;
46447;SDS011;32145;50.390;30.778;2022-07-06T07:10:15;5.50;;;3.30;;
46447;SDS011;32145;50.390;30.778;2022-07-06T07:13:00;5.15;;;3.30;;
46447;SDS011;32145;50.390;30.778;2022-07-06T07:15:44;5.40;;;3.10;;
46447;SDS011;32145;50.390;30.778;2022-07-06T07:18:29;7.95;;;3.25;;
46447;SDS011;32145;50.390;30.778;2022-07-06T07:21:13;7.53;;;3.45;;
46447;SDS011;32145;50.390;30.778;2022-07-06T07:23:58;6.55;;;3.30;;
46447;SDS011;32145;50.390;30.778;2022-07-06T07:26:42;7.95;;;3.28;;
46447;SDS011;32145;50.390;30.778;2022-07-06T07:29:26;4.90;;;3.17;;
46447;SDS011;32145;50.390;30.778;2022-07-06T07:32:11;6.38;;;3.13;;
46447;SDS011;32145;50.390;30.778;2022-07-06T07:34:55;7.18;;;3.30;;
46447;SDS011;32145;50.390;30.778;2022-07-06T07:37:39;6.13;;;3.05;;
46447;SDS011;32145;50.390;30.778;2022-07-06T07:40:24;9.65;;;3.08;;
46447;SDS011;32145;50.390;30.778;2022-07-06T07:43:08;6.30;;;3.20;;
46447;SDS011;32145;50.390;30.778;2022-07-06T07:45:52;6.13;;;3.05;;
46447;SDS011;32145;50.390;30.778;2022-07-06T07:48:36;6.93;;;3.33;;
46447;SDS011;32145;50.390;30.778;2022-07-06T07:51:20;9.25;;;3.38;;
46447;SDS011;32145;50.390;30.778;2022-07-06T07:54:04;4.75;;;2.80;;
46447;SDS011;32145;50.390;30.778;2022-07-06T07:56:49;5.13;;;2.90;;
46447;SDS011;32145;50.390;30.778;2022-07-06T07:59:34;5.85;;;2.85;;
46447;SDS011;32145;50.390;30.778;2022-07-06T08:02:18;6.85;;;3.20;;
46447;SDS011;32145;50.390;30.778;2022-07-06T08:05:02;6.10;;;3.30;;
46447;SDS011;32145;50.390;30.778;2022-07-06T08:07:47;4.93;;;3.10;;
46447;SDS011;32145;50.390;30.778;2022-07-06T08:10:31;5.88;;;3.10;;
46447;SDS011;32145;50.390;30.778;2022-07-06T08:13:16;7.13;;;2.92;;
46447;SDS011;32145;50.390;30.778;2022-07-06T08:16:00;8.35;;;3.00;;
46447;SDS011;32145;50.390;30.778;2022-07-06T08:18:44;5.45;;;2.72;;
46447;SDS011;32145;50.390;30.778;2022-07-06T08:21:28;7.05;;;3.25;;
46447;SDS011;32145;50.390;30.778;2022-07-06T08:24:12;5.75;;;3.00;;
46447;SDS011;32145;50.390;30.778;2022-07-06T08:26:56;3.78;;;2.95;;
46447;SDS011;32145;50.390;30.778;2022-07-06T08:29:41;8.60;;;2.90;;
46447;SDS011;32145;50.390;30.778;2022-07-06T08:32:26;7.05;;;3.05;;
46447;SDS011;32145;50.390;30.778;2022-07-06T08:35:11;6.18;;;3.58;;
46447;SDS011;32145;50.390;30.778;2022-07-06T08:37:55;8.82;;;3.10;;
46447;SDS011;32145;50.390;30.778;2022-07-06T08:40:40;6.90;;;2.92;;
46447;SDS011;32145;50.390;30.778;2022-07-06T08:43:24;6.50;;;3.17;;
46447;SDS011;32145;50.390;30.778;2022-07-06T08:46:11;4.15;;;3.30;;
46447;SDS011;32145;50.390;30.778;2022-07-06T08:48:56;5.72;;;3.40;;
46447;SDS011;32145;50.390;30.778;2022-07-06T08:51:40;10.02;;;3.60;;
46447;SDS011;32145;50.390;30.778;2022-07-06T08:54:25;5.65;;;3.60;;
46447;SDS011;32145;50.390;30.778;2022-07-06T08:57:10;6.38;;;3.67;;
46447;SDS011;32145;50.390;30.778;2022-07-06T08:59:55;8.32;;;4.10;;
46447;SDS011;32145;50.390;30.778;2022-07-06T09:02:41;6.70;;;3.75;;
46447;SDS011;32145;50.390;30.778;2022-07-06T09:05:26;5.82;;;3.85;;
46447;SDS011;32145;50.390;30.778;2022-07-06T09:08:11;5.18;;;4.10;;
46447;SDS011;32145;50.390;30.778;2022-07-06T09:10:56;5.75;;;3.92;;
46447;SDS011;32145;50.390;30.778;2022-07-06T09:13:40;6.82;;;4.22;;
46447;SDS011;32145;50.390;30.778;2022-07-06T09:16:25;5.97;;;3.63;;
46447;SDS011;32145;50.390;30.778;2022-07-06T09:19:12;6.28;;;4.03;;
46447;SDS011;32145;50.390;30.778;2022-07-06T09:21:56;5.60;;;4.00;;
46447;SDS011;32145;50.390;30.778;2022-07-06T09:24:41;6.50;;;3.78;;
46447;SDS011;32145;50.390;30.778;2022-07-06T09:27:26;8.07;;;4.07;;
46447;SDS011;32145;50.390;30.778;2022-07-06T09:30:10;6.43;;;3.63;;
46447;SDS011;32145;50.390;30.778;2022-07-06T09:32:55;6.35;;;3.60;;
46447;SDS011;32145;50.390;30.778;2022-07-06T09:35:42;9.35;;;4.05;;
46447;SDS011;32145;50.390;30.778;2022-07-06T09:38:26;5.68;;;3.92;;
46447;SDS011;32145;50.390;30.778;2022-07-06T09:41:10;5.45;;;3.60;;
46447;SDS011;32145;50.390;30.778;2022-07-06T09:43:54;7.38;;;3.80;;
46447;SDS011;32145;50.390;30.778;2022-07-06T09:46:39;9.25;;;4.18;;
46447;SDS011;32145;50.390;30.778;2022-07-06T09:49:24;5.82;;;3.90;;
46447;SDS011;32145;50.390;30.778;2022-07-06T09:52:10;7.10;;;3.70;;
46447;SDS011;32145;50.390;30.778;2022-07-06T09:54:54;8.10;;;4.10;;
46447;SDS011;32145;50.390;30.778;2022-07-06T09:57:38;5.10;;;3.60;;
46447;SDS011;32145;50.390;30.778;2022-07-06T10:00:22;10.50;;;3.80;;
46447;SDS011;32145;50.390;30.778;2022-07-06T10:03:07;5.30;;;3.85;;
46447;SDS011;32145;50.390;30.778;2022-07-06T10:05:51;5.10;;;3.70;;
46447;SDS011;32145;50.390;30.778;2022-07-06T10:08:38;6.82;;;3.70;;
46447;SDS011;32145;50.390;30.778;2022-07-06T10:11:23;6.63;;;3.85;;
46447;SDS011;32145;50.390;30.778;2022-07-06T10:14:08;6.03;;;3.78;;
46447;SDS011;32145;50.390;30.778;2022-07-06T10:16:54;3.88;;;3.45;;
46447;SDS011;32145;50.390;30.778;2022-07-06T10:19:38;4.90;;;3.40;;
46447;SDS011;32145;50.390;30.778;2022-07-06T10:22:24;5.05;;;3.60;;
46447;SDS011;32145;50.390;30.778;2022-07-06T10:25:09;6.88;;;4.10;;
46447;SDS011;32145;50.390;30.778;2022-07-06T10:27:55;5.03;;;3.92;;
46447;SDS011;32145;50.390;30.778;2022-07-06T10:30:39;7.03;;;3.80;;
46447;SDS011;32145;50.390;30.778;2022-07-06T10:33:24;6.60;;;3.90;;
46447;SDS011;32145;50.390;30.778;2022-07-06T10:36:09;7.07;;;4.13;;
46447;SDS011;32145;50.390;30.778;2022-07-06T10:38:55;6.03;;;3.70;;
46447;SDS011;32145;50.390;30.778;2022-07-06T10:41:41;10.18;;;3.78;;
46447;SDS011;32145;50.390;30.778;2022-07-06T10:44:27;6.68;;;4.13;;
46447;SDS011;32145;50.390;30.778;2022-07-06T10:47:11;5.80;;;4.10;;
46447;SDS011;32145;50.390;30.778;2022-07-06T10:49:56;13.32;;;4.22;;
46447;SDS011;32145;50.390;30.778;2022-07-06T10:52:57;6.80;;;4.15;;
46447;SDS011;32145;50.390;30.778;2022-07-06T10:55:43;5.15;;;3.95;;
46447;SDS011;32145;50.390;30.778;2022-07-06T10:58:36;8.10;;;3.90;;
46447;SDS011;32145;50.390;30.778;2022-07-06T11:01:21;6.07;;;3.70;;
46447;SDS011;32145;50.390;30.778;2022-07-06T11:04:07;7.70;;;3.70;;
46447;SDS011;32145;50.390;30.778;2022-07-06T11:06:53;7.45;;;3.95;;
46447;SDS011;32145;50.390;30.778;2022-07-06T11:09:37;7.25;;;3.83;;
46447;SDS011;32145;50.390;30.778;2022-07-06T11:12:22;6.95;;;3.88;;
46447;SDS011;32145;50.390;30.778;2022-07-06T11:15:08;6.05;;;3.75;;
46447;SDS011;32145;50.390;30.778;2022-07-06T11:21:14;5.47;;;3.75;;
46447;SDS011;32145;50.390;30.778;2022-07-06T11:23:59;9.82;;;3.67;;
46447;SDS011;32145;50.390;30.778;2022-07-06T11:26:45;6.05;;;4.40;;
46447;SDS011;32145;50.390;30.778;2022-07-06T11:29:30;5.18;;;4.05;;
46447;SDS011;32145;50.390;30.778;2022-07-06T11:32:16;9.63;;;4.10;;
46447;SDS011;32145;50.390;30.778;2022-07-06T11:35:07;6.18;;;4.03;;
46447;SDS011;32145;50.390;30.778;2022-07-06T11:37:51;8.00;;;3.90;;
46447;SDS011;32145;50.390;30.778;2022-07-06T11:40:37;5.25;;;4.00;;
46447;SDS011;32145;50.390;30.778;2022-07-06T11:43:21;6.30;;;4.13;;
46447;SDS011;32145;50.390;30.778;2022-07-06T11:46:05;6.63;;;3.67;;
46447;SDS011;32145;50.390;30.778;2022-07-06T11:48:51;8.73;;;4.40;;
46447;SDS011;32145;50.390;30.778;2022-07-06T11:51:37;6.93;;;3.95;;
46447;SDS011;32145;50.390;30.778;2022-07-06T11:54:23;7.25;;;3.90;;
46447;SDS011;32145;50.390;30.778;2022-07-06T11:57:09;8.77;;;3.90;;
46447;SDS011;32145;50.390;30.778;2022-07-06T11:59:54;9.05;;;4.13;;
46447;SDS011;32145;50.390;30.778;2022-07-06T12:02:38;6.03;;;4.00;;
46447;SDS011;32145;50.390;30.778;2022-07-06T12:05:29;5.28;;;3.42;;
46447;SDS011;32145;50.390;30.778;2022-07-06T12:08:14;9.48;;;4.10;;
46447;SDS011;32145;50.390;30.778;2022-07-06T12:10:58;7.18;;;3.88;;
46447;SDS011;32145;50.390;30.778;2022-07-06T12:13:42;5.30;;;3.78;;
46447;SDS011;32145;50.390;30.778;2022-07-06T12:16:28;5.75;;;4.07;;
46447;SDS011;32145;50.390;30.778;2022-07-06T12:19:14;7.85;;;3.65;;
46447;SDS011;32145;50.390;30.778;2022-07-06T12:22:00;9.70;;;3.53;;
46447;SDS011;32145;50.390;30.778;2022-07-06T12:24:44;5.20;;;3.40;;
46447;SDS011;32145;50.390;30.778;2022-07-06T12:27:28;5.10;;;3.40;;
46447;SDS011;32145;50.390;30.778;2022-07-06T12:30:18;9.38;;;3.95;;
46447;SDS011;32145;50.390;30.778;2022-07-06T12:33:12;9.95;;;3.75;;
46447;SDS011;32145;50.390;30.778;2022-07-06T12:36:05;7.40;;;3.60;;
46447;SDS011;32145;50.390;30.778;2022-07-06T12:38:54;6.80;;;3.90;;
46447;SDS011;32145;50.390;30.778;2022-07-06T12:41:43;8.20;;;3.78;;
46447;SDS011;32145;50.390;30.778;2022-07-06T12:44:28;9.20;;;3.72;;
46447;SDS011;32145;50.390;30.778;2022-07-06T12:47:16;9.68;;;3.97;;
46447;SDS011;32145;50.390;30.778;2022-07-06T12:50:05;11.13;;;3.65;;
46447;SDS011;32145;50.390;30.778;2022-07-06T12:55:36;8.30;;;3.95;;
46447;SDS011;32145;50.390;30.778;2022-07-06T12:58:20;6.70;;;4.00;;
46447;SDS011;32145;50.390;30.778;2022-07-06T13:01:04;6.90;;;3.83;;
46447;SDS011;32145;50.390;30.778;2022-07-06T13:03:48;10.70;;;3.70;;
46447;SDS011;32145;50.390;30.778;2022-07-06T13:06:38;6.35;;;3.58;;
46447;SDS011;32145;50.390;30.778;2022-07-06T13:09:22;6.93;;;3.45;;
46447;SDS011;32145;50.390;30.778;2022-07-06T13:12:08;4.78;;;3.38;;
46447;SDS011;32145;50.390;30.778;2022-07-06T13:14:52;7.20;;;3.75;;
46447;SDS011;32145;50.390;30.778;2022-07-06T13:17:36;5.70;;;3.63;;
46447;SDS011;32145;50.390;30.778;2022-07-06T13:20:20;6.32;;;3.67;;
46447;SDS011;32145;50.390;30.778;2022-07-06T13:23:04;6.80;;;4.40;;
46447;SDS011;32145;50.390;30.778;2022-07-06T13:25:48;9.30;;;3.40;;
46447;SDS011;32145;50.390;30.778;2022-07-06T13:28:34;12.38;;;3.85;;
46447;SDS011;32145;50.390;30.778;2022-07-06T13:31:17;10.88;;;3.63;;
46447;SDS011;32145;50.390;30.778;2022-07-06T13:34:02;9.60;;;3.50;;
46447;SDS011;32145;50.390;30.778;2022-07-06T13:36:46;7.32;;;3.60;;
46447;SDS011;32145;50.390;30.778;2022-07-06T13:39:30;7.40;;;3.50;;
46447;SDS011;32145;50.390;30.778;2022-07-06T13:42:14;7.45;;;3.17;;
46447;SDS011;32145;50.390;30.778;2022-07-06T13:44:59;10.40;;;3.45;;
46447;SDS011;32145;50.390;30.778;2022-07-06T13:47:43;7.43;;;3.40;;
46447;SDS011;32145;50.390;30.778;2022-07-06T13:50:27;8.32;;;3.63;;
46447;SDS011;32145;50.390;30.778;2022-07-06T13:53:12;5.45;;;3.53;;
46447;SDS011;32145;50.390;30.778;2022-07-06T13:55:56;15.18;;;4.20;;
46447;SDS011;32145;50.390;30.778;2022-07-06T13:58:40;9.27;;;4.07;;
46447;SDS011;32145;50.390;30.778;2022-07-06T14:01:26;7.28;;;4.30;;
46447;SDS011;32145;50.390;30.778;2022-07-06T14:04:10;7.22;;;4.25;;
46447;SDS011;32145;50.390;30.778;2022-07-06T14:06:53;7.45;;;4.15;;
46447;SDS011;32145;50.390;30.778;2022-07-06T14:09:37;5.32;;;4.18;;
46447;SDS011;32145;50.390;30.778;2022-07-06T14:12:21;8.75;;;4.78;;
46447;SDS011;32145;50.390;30.778;2022-07-06T14:15:06;10.82;;;4.50;;
46447;SDS011;32145;50.390;30.778;2022-07-06T14:17:52;5.97;;;4.32;;
46447;SDS011;32145;50.390;30.778;2022-07-06T14:20:36;9.70;;;4.38;;
46447;SDS011;32145;50.390;30.778;2022-07-06T14:23:20;12.02;;;4.45;;
46447;SDS011;32145;50.390;30.778;2022-07-06T14:26:05;12.90;;;4.35;;
46447;SDS011;32145;50.390;30.778;2022-07-06T14:28:49;10.68;;;4.43;;
46447;SDS011;32145;50.390;30.778;2022-07-06T14:31:33;12.23;;;4.60;;
46447;SDS011;32145;50.390;30.778;2022-07-06T14:34:19;9.32;;;4.70;;
46447;SDS011;32145;50.390;30.778;2022-07-06T14:37:03;8.40;;;4.60;;
46447;SDS011;32145;50.390;30.778;2022-07-06T14:39:47;8.07;;;4.30;;
46447;SDS011;32145;50.390;30.778;2022-07-06T14:42:31;9.10;;;4.75;;
46447;SDS011;32145;50.390;30.778;2022-07-06T14:45:15;6.88;;;4.72;;
46447;SDS011;32145;50.390;30.778;2022-07-06T14:48:00;8.77;;;4.40;;
46447;SDS011;32145;50.390;30.778;2022-07-06T14:50:45;12.85;;;5.10;;
46447;SDS011;32145;50.390;30.778;2022-07-06T14:53:29;11.88;;;5.25;;
46447;SDS011;32145;50.390;30.778;2022-07-06T14:56:13;8.65;;;5.30;;
46447;SDS011;32145;50.390;30.778;2022-07-06T14:58:57;9.27;;;5.30;;
46447;SDS011;32145;50.390;30.778;2022-07-06T15:01:41;10.73;;;4.80;;
46447;SDS011;32145;50.390;30.778;2022-07-06T15:04:25;8.50;;;5.50;;
46447;SDS011;32145;50.390;30.778;2022-07-06T15:07:11;9.13;;;5.40;;
46447;SDS011;32145;50.390;30.778;2022-07-06T15:09:56;10.45;;;5.60;;
46447;SDS011;32145;50.390;30.778;2022-07-06T15:12:40;11.27;;;5.15;;
46447;SDS011;32145;50.390;30.778;2022-07-06T15:15:25;10.30;;;5.00;;
46447;SDS011;32145;50.390;30.778;2022-07-06T15:18:09;9.15;;;5.55;;
46447;SDS011;32145;50.390;30.778;2022-07-06T15:20:53;7.82;;;5.07;;
46447;SDS011;32145;50.390;30.778;2022-07-06T15:23:39;10.15;;;5.20;;
46447;SDS011;32145;50.390;30.778;2022-07-06T15:26:23;10.00;;;5.40;;
46447;SDS011;32145;50.390;30.778;2022-07-06T15:29:07;8.52;;;5.25;;
46447;SDS011;32145;50.390;30.778;2022-07-06T15:31:51;8.95;;;5.13;;
46447;SDS011;32145;50.390;30.778;2022-07-06T15:34:35;9.02;;;5.22;;
46447;SDS011;32145;50.390;30.778;2022-07-06T15:37:19;10.95;;;6.20;;
46447;SDS011;32145;50.390;30.778;2022-07-06T15:40:05;10.15;;;5.63;;
46447;SDS011;32145;50.390;30.778;2022-07-06T15:42:51;14.30;;;5.90;;
46447;SDS011;32145;50.390;30.778;2022-07-06T15:45:35;11.35;;;5.63;;
46447;SDS011;32145;50.390;30.778;2022-07-06T15:48:20;9.55;;;6.10;;
46447;SDS011;32145;50.390;30.778;2022-07-06T15:51:04;9.25;;;5.85;;
46447;SDS011;32145;50.390;30.778;2022-07-06T15:53:48;8.88;;;5.80;;
46447;SDS011;32145;50.390;30.778;2022-07-06T15:56:34;10.27;;;6.10;;
46447;SDS011;32145;50.390;30.778;2022-07-06T15:59:18;11.80;;;6.25;;
46447;SDS011;32145;50.390;30.778;2022-07-06T16:02:02;11.00;;;6.07;;
46447;SDS011;32145;50.390;30.778;2022-07-06T16:04:47;9.68;;;5.93;;
46447;SDS011;32145;50.390;30.778;2022-07-06T16:07:31;10.65;;;6.25;;
46447;SDS011;32145;50.390;30.778;2022-07-06T16:10:15;10.38;;;6.05;;
46447;SDS011;32145;50.390;30.778;2022-07-06T16:13:00;9.73;;;5.90;;
46447;SDS011;32145;50.390;30.778;2022-07-06T16:15:45;10.75;;;6.57;;
46447;SDS011;32145;50.390;30.778;2022-07-06T16:18:28;11.68;;;6.63;;
46447;SDS011;32145;50.390;30.778;2022-07-06T16:21:13;11.75;;;7.47;;